sensor_id;sensor_type;location;lat;lon;timestamp;pressure;altitude;pressure_sealevel;temperature;humidity
13612;BME280;6877;51.436;6.774;2023-09-12T00:01:36;100787.25;;;19.71;100.00
13612;BME280;6877;51.436;6.774;2023-09-12T00:04:07;100778.41;;;19.70;100.00
13612;BME280;6877;51.436;6.774;2023-09-12T00:06:34;100778.56;;;19.67;100.00
13612;BME280;6877;51.436;6.774;2023-09-12T00:09:00;100787.63;;;19.63;100.00
13612;BME280;6877;51.436;6.774;2023-09-12T00:11:27;100801.00;;;19.61;100.00
13612;BME280;6877;51.436;6.774;2023-09-12T00:13:53;100803.03;;;19.56;100.00
13612;BME280;6877;51.436;6.774;2023-09-12T00:16:20;100792.41;;;19.56;100.00
13612;BME280;6877;51.436;6.774;2023-09-12T00:18:46;100793.19;;;19.58;100.00
13612;BME280;6877;51.436;6.774;2023-09-12T00:21:12;100834.66;;;19.61;100.00
13612;BME280;6877;51.436;6.774;2023-09-12T00:23:39;100873.13;;;19.70;100.00
13612;BME280;6877;51.436;6.774;2023-09-12T00:26:06;100903.19;;;19.86;100.00
13612;BME280;6877;51.436;6.774;2023-09-12T00:28:32;100893.88;;;19.95;100.00
13612;BME280;6877;51.436;6.774;2023-09-12T00:31:00;100734.84;;;20.04;100.00
13612;BME280;6877;51.436;6.774;2023-09-12T00:33:27;100684.25;;;19.76;100.00
13612;BME280;6877;51.436;6.774;2023-09-12T00:35:53;100656.97;;;19.26;100.00
13612;BME280;6877;51.436;6.774;2023-09-12T00:38:20;100664.22;;;18.91;100.00
13612;BME280;6877;51.436;6.774;2023-09-12T00:40:46;100688.78;;;18.61;100.00
13612;BME280;6877;51.436;6.774;2023-09-12T00:43:18;100719.59;;;18.46;100.00
13612;BME280;6877;51.436;6.774;2023-09-12T00:45:45;100724.03;;;18.46;100.00
13612;BME280;6877;51.436;6.774;2023-09-12T00:48:12;100739.94;;;18.46;100.00
13612;BME280;6877;51.436;6.774;2023-09-12T00:50:40;100737.38;;;18.44;100.00
13612;BME280;6877;51.436;6.774;2023-09-12T00:53:07;100742.84;;;18.41;100.00
13612;BME280;6877;51.436;6.774;2023-09-12T00:55:43;100763.31;;;18.38;100.00
13612;BME280;6877;51.436;6.774;2023-09-12T00:58:17;100763.44;;;18.35;100.00
13612;BME280;6877;51.436;6.774;2023-09-12T01:00:43;100765.72;;;18.25;100.00
13612;BME280;6877;51.436;6.774;2023-09-12T01:03:10;100771.31;;;18.19;100.00
13612;BME280;6877;51.436;6.774;2023-09-12T01:05:43;100772.41;;;18.15;100.00
13612;BME280;6877;51.436;6.774;2023-09-12T01:08:15;100756.75;;;18.10;100.00
13612;BME280;6877;51.436;6.774;2023-09-12T01:10:42;100761.22;;;18.10;100.00
13612;BME280;6877;51.436;6.774;2023-09-12T01:13:14;100765.00;;;18.04;100.00
13612;BME280;6877;51.436;6.774;2023-09-12T01:15:41;100770.47;;;18.01;100.00
13612;BME280;6877;51.436;6.774;2023-09-12T01:18:07;100762.50;;;18.01;100.00
13612;BME280;6877;51.436;6.774;2023-09-12T01:20:35;100781.91;;;18.01;100.00
13612;BME280;6877;51.436;6.774;2023-09-12T01:23:26;100779.16;;;18.03;100.00
13612;BME280;6877;51.436;6.774;2023-09-12T01:28:51;100752.38;;;18.09;100.00
13612;BME280;6877;51.436;6.774;2023-09-12T01:31:17;100750.97;;;18.02;100.00
13612;BME280;6877;51.436;6.774;2023-09-12T01:33:44;100761.56;;;18.02;100.00
13612;BME280;6877;51.436;6.774;2023-09-12T01:36:16;100774.00;;;18.00;100.00
13612;BME280;6877;51.436;6.774;2023-09-12T01:38:42;100771.31;;;18.01;100.00
13612;BME280;6877;51.436;6.774;2023-09-12T01:41:09;100767.72;;;18.02;100.00
13612;BME280;6877;51.436;6.774;2023-09-12T01:43:36;100771.06;;;18.06;100.00
13612;BME280;6877;51.436;6.774;2023-09-12T01:46:03;100774.59;;;18.06;100.00
13612;BME280;6877;51.436;6.774;2023-09-12T01:48:36;100774.34;;;18.11;100.00
13612;BME280;6877;51.436;6.774;2023-09-12T01:51:04;100751.38;;;18.12;100.00
13612;BME280;6877;51.436;6.774;2023-09-12T01:53:32;100715.47;;;18.06;100.00
13612;BME280;6877;51.436;6.774;2023-09-12T01:55:59;100715.16;;;17.95;100.00
13612;BME280;6877;51.436;6.774;2023-09-12T01:58:26;100737.09;;;17.97;100.00
13612;BME280;6877;51.436;6.774;2023-09-12T02:00:58;100744.28;;;17.95;100.00
13612;BME280;6877;51.436;6.774;2023-09-12T02:03:24;100738.84;;;17.98;100.00
13612;BME280;6877;51.436;6.774;2023-09-12T02:05:51;100731.50;;;18.03;100.00
13612;BME280;6877;51.436;6.774;2023-09-12T02:08:17;100750.53;;;18.11;100.00
13612;BME280;6877;51.436;6.774;2023-09-12T02:10:44;100741.63;;;18.12;100.00
13612;BME280;6877;51.436;6.774;2023-09-12T02:13:10;100725.91;;;18.09;100.00
13612;BME280;6877;51.436;6.774;2023-09-12T02:15:37;100733.38;;;18.01;100.00
13612;BME280;6877;51.436;6.774;2023-09-12T02:18:03;100755.56;;;17.98;100.00
13612;BME280;6877;51.436;6.774;2023-09-12T02:20:38;100769.59;;;18.00;100.00
13612;BME280;6877;51.436;6.774;2023-09-12T02:23:09;100754.25;;;18.07;100.00
13612;BME280;6877;51.436;6.774;2023-09-12T02:25:36;100748.72;;;18.12;100.00
13612;BME280;6877;51.436;6.774;2023-09-12T02:28:08;100752.06;;;18.15;100.00
13612;BME280;6877;51.436;6.774;2023-09-12T02:30:38;100768.75;;;18.17;100.00
13612;BME280;6877;51.436;6.774;2023-09-12T02:33:05;100764.41;;;18.16;100.00
13612;BME280;6877;51.436;6.774;2023-09-12T02:35:31;100762.66;;;18.15;100.00
13612;BME280;6877;51.436;6.774;2023-09-12T02:37:57;100764.41;;;18.16;100.00
13612;BME280;6877;51.436;6.774;2023-09-12T02:40:24;100801.47;;;18.16;100.00
13612;BME280;6877;51.436;6.774;2023-09-12T02:42:52;100825.78;;;18.24;100.00
13612;BME280;6877;51.436;6.774;2023-09-12T02:45:18;100805.59;;;18.22;100.00
13612;BME280;6877;51.436;6.774;2023-09-12T02:47:45;100787.31;;;18.17;100.00
13612;BME280;6877;51.436;6.774;2023-09-12T02:50:12;100757.16;;;18.20;100.00
13612;BME280;6877;51.436;6.774;2023-09-12T02:52:39;100728.94;;;18.19;100.00
13612;BME280;6877;51.436;6.774;2023-09-12T02:55:06;100735.34;;;18.15;100.00
13612;BME280;6877;51.436;6.774;2023-09-12T02:57:37;100735.44;;;18.13;100.00
13612;BME280;6877;51.436;6.774;2023-09-12T03:00:09;100738.84;;;18.15;100.00
13612;BME280;6877;51.436;6.774;2023-09-12T03:02:37;100743.22;;;18.16;100.00
13612;BME280;6877;51.436;6.774;2023-09-12T03:05:08;100737.91;;;18.16;100.00
13612;BME280;6877;51.436;6.774;2023-09-12T03:07:40;100737.38;;;18.10;100.00
13612;BME280;6877;51.436;6.774;2023-09-12T03:10:11;100739.28;;;18.06;100.00
13612;BME280;6877;51.436;6.774;2023-09-12T03:12:38;100741.94;;;18.06;100.00
13612;BME280;6877;51.436;6.774;2023-09-12T03:15:05;100744.59;;;18.06;100.00
13612;BME280;6877;51.436;6.774;2023-09-12T03:17:32;100737.59;;;18.05;100.00
13612;BME280;6877;51.436;6.774;2023-09-12T03:19:58;100726.94;;;18.06;100.00
13612;BME280;6877;51.436;6.774;2023-09-12T03:22:29;100724.34;;;18.05;100.00
13612;BME280;6877;51.436;6.774;2023-09-12T03:24:58;100717.34;;;18.04;100.00
13612;BME280;6877;51.436;6.774;2023-09-12T03:27:24;100719.19;;;18.02;100.00
13612;BME280;6877;51.436;6.774;2023-09-12T03:29:51;100714.84;;;18.01;100.00
13612;BME280;6877;51.436;6.774;2023-09-12T03:32:17;100706.91;;;18.01;100.00
13612;BME280;6877;51.436;6.774;2023-09-12T03:34:44;100713.09;;;18.00;100.00
13612;BME280;6877;51.436;6.774;2023-09-12T03:37:15;100712.50;;;17.95;100.00
13612;BME280;6877;51.436;6.774;2023-09-12T03:39:42;100703.91;;;17.90;100.00
13612;BME280;6877;51.436;6.774;2023-09-12T03:42:08;100707.66;;;17.86;100.00
13612;BME280;6877;51.436;6.774;2023-09-12T03:44:35;100695.22;;;17.88;100.00
13612;BME280;6877;51.436;6.774;2023-09-12T03:47:01;100689.94;;;17.88;100.00
13612;BME280;6877;51.436;6.774;2023-09-12T03:49:28;100677.53;;;17.88;100.00
13612;BME280;6877;51.436;6.774;2023-09-12T03:51:54;100671.09;;;17.94;100.00
13612;BME280;6877;51.436;6.774;2023-09-12T03:54:21;100665.84;;;17.92;100.00
13612;BME280;6877;51.436;6.774;2023-09-12T03:56:47;100669.44;;;17.91;100.00
13612;BME280;6877;51.436;6.774;2023-09-12T03:59:14;100661.56;;;17.90;100.00
13612;BME280;6877;51.436;6.774;2023-09-12T04:01:40;100654.47;;;17.90;100.00
13612;BME280;6877;51.436;6.774;2023-09-12T04:04:07;100652.72;;;17.91;100.00
13612;BME280;6877;51.436;6.774;2023-09-12T04:06:38;100665.16;;;17.89;100.00
13612;BME280;6877;51.436;6.774;2023-09-12T04:09:05;100660.81;;;17.88;100.00
13612;BME280;6877;51.436;6.774;2023-09-12T04:11:37;100668.75;;;17.88;100.00
13612;BME280;6877;51.436;6.774;2023-09-12T04:14:09;100669.66;;;17.87;100.00
13612;BME280;6877;51.436;6.774;2023-09-12T04:16:40;100654.72;;;17.86;100.00
13612;BME280;6877;51.436;6.774;2023-09-12T04:19:14;100655.81;;;17.81;100.00
13612;BME280;6877;51.436;6.774;2023-09-12T04:21:40;100656.81;;;17.79;100.00
13612;BME280;6877;51.436;6.774;2023-09-12T04:24:07;100661.31;;;17.77;100.00
13612;BME280;6877;51.436;6.774;2023-09-12T04:26:39;100664.94;;;17.74;100.00
13612;BME280;6877;51.436;6.774;2023-09-12T04:29:05;100660.75;;;17.70;100.00
13612;BME280;6877;51.436;6.774;2023-09-12T04:31:32;100659.09;;;17.68;100.00
13612;BME280;6877;51.436;6.774;2023-09-12T04:34:04;100659.19;;;17.66;100.00
13612;BME280;6877;51.436;6.774;2023-09-12T04:36:31;100668.03;;;17.65;100.00
13612;BME280;6877;51.436;6.774;2023-09-12T04:38:57;100667.03;;;17.68;100.00
13612;BME280;6877;51.436;6.774;2023-09-12T04:41:24;100673.75;;;17.75;100.00
13612;BME280;6877;51.436;6.774;2023-09-12T04:43:51;100686.78;;;17.79;100.00
13612;BME280;6877;51.436;6.774;2023-09-12T04:46:17;100687.78;;;17.77;100.00
13612;BME280;6877;51.436;6.774;2023-09-12T04:48:44;100707.88;;;17.81;100.00
13612;BME280;6877;51.436;6.774;2023-09-12T04:51:10;100698.78;;;17.87;100.00
13612;BME280;6877;51.436;6.774;2023-09-12T04:53:37;100702.22;;;17.89;100.00
13612;BME280;6877;51.436;6.774;2023-09-12T04:56:03;100698.63;;;17.90;100.00
13612;BME280;6877;51.436;6.774;2023-09-12T04:58:30;100699.41;;;17.92;100.00
13612;BME280;6877;51.436;6.774;2023-09-12T05:01:02;100704.56;;;17.95;100.00
13612;BME280;6877;51.436;6.774;2023-09-12T05:03:29;100713.19;;;17.98;100.00
13612;BME280;6877;51.436;6.774;2023-09-12T05:06:00;100710.31;;;18.03;100.00
13612;BME280;6877;51.436;6.774;2023-09-12T05:08:27;100710.94;;;18.08;100.00
13612;BME280;6877;51.436;6.774;2023-09-12T05:10:53;100701.16;;;18.10;100.00
13612;BME280;6877;51.436;6.774;2023-09-12T05:13:25;100697.66;;;18.10;100.00
13612;BME280;6877;51.436;6.774;2023-09-12T05:15:51;100712.59;;;18.11;100.00
13612;BME280;6877;51.436;6.774;2023-09-12T05:18:21;100705.44;;;18.13;100.00
13612;BME280;6877;51.436;6.774;2023-09-12T05:20:47;100715.16;;;18.12;100.00
13612;BME280;6877;51.436;6.774;2023-09-12T05:23:14;100702.84;;;18.11;100.00
13612;BME280;6877;51.436;6.774;2023-09-12T05:25:40;100714.44;;;18.09;100.00
13612;BME280;6877;51.436;6.774;2023-09-12T05:28:12;100719.06;;;18.05;100.00
13612;BME280;6877;51.436;6.774;2023-09-12T05:30:47;100740.19;;;18.06;100.00
13612;BME280;6877;51.436;6.774;2023-09-12T05:33:17;100741.63;;;18.12;100.00
13612;BME280;6877;51.436;6.774;2023-09-12T05:35:43;100747.56;;;18.17;100.00
13612;BME280;6877;51.436;6.774;2023-09-12T05:38:13;100758.06;;;18.19;100.00
13612;BME280;6877;51.436;6.774;2023-09-12T05:40:39;100758.94;;;18.19;100.00
13612;BME280;6877;51.436;6.774;2023-09-12T05:43:06;100751.78;;;18.21;100.00
13612;BME280;6877;51.436;6.774;2023-09-12T05:45:37;100756.06;;;18.24;100.00
13612;BME280;6877;51.436;6.774;2023-09-12T05:48:04;100762.75;;;18.31;100.00
13612;BME280;6877;51.436;6.774;2023-09-12T05:50:30;100774.06;;;18.35;100.00
13612;BME280;6877;51.436;6.774;2023-09-12T05:52:57;100766.53;;;18.44;100.00
13612;BME280;6877;51.436;6.774;2023-09-12T05:55:29;100773.28;;;18.50;100.00
13612;BME280;6877;51.436;6.774;2023-09-12T05:57:55;100769.56;;;18.54;100.00
13612;BME280;6877;51.436;6.774;2023-09-12T06:00:21;100788.88;;;18.56;100.00
13612;BME280;6877;51.436;6.774;2023-09-12T06:02:53;100800.31;;;18.57;100.00
13612;BME280;6877;51.436;6.774;2023-09-12T06:05:19;100830.97;;;18.62;100.00
13612;BME280;6877;51.436;6.774;2023-09-12T06:07:46;100874.22;;;18.63;100.00
13612;BME280;6877;51.436;6.774;2023-09-12T06:10:13;100920.31;;;18.60;100.00
13612;BME280;6877;51.436;6.774;2023-09-12T06:12:39;100935.47;;;18.57;100.00
13612;BME280;6877;51.436;6.774;2023-09-12T06:15:11;100958.88;;;18.48;100.00
13612;BME280;6877;51.436;6.774;2023-09-12T06:17:37;100929.81;;;18.28;100.00
13612;BME280;6877;51.436;6.774;2023-09-12T06:20:05;100913.88;;;18.11;100.00
13612;BME280;6877;51.436;6.774;2023-09-12T06:22:34;100897.81;;;17.76;100.00
13612;BME280;6877;51.436;6.774;2023-09-12T06:25:01;100836.53;;;17.46;100.00
13612;BME280;6877;51.436;6.774;2023-09-12T06:27:27;100777.34;;;17.29;100.00
13612;BME280;6877;51.436;6.774;2023-09-12T06:29:54;100717.72;;;17.22;100.00
13612;BME280;6877;51.436;6.774;2023-09-12T06:32:20;100699.22;;;17.22;100.00
13612;BME280;6877;51.436;6.774;2023-09-12T06:34:47;100700.22;;;17.20;100.00
13612;BME280;6877;51.436;6.774;2023-09-12T06:37:14;100697.00;;;17.13;100.00
13612;BME280;6877;51.436;6.774;2023-09-12T06:39:41;100705.13;;;17.08;100.00
13612;BME280;6877;51.436;6.774;2023-09-12T06:42:08;100714.22;;;17.03;100.00
13612;BME280;6877;51.436;6.774;2023-09-12T06:44:35;100738.88;;;17.03;100.00
13612;BME280;6877;51.436;6.774;2023-09-12T06:47:04;100748.16;;;16.93;100.00
13612;BME280;6877;51.436;6.774;2023-09-12T06:49:31;100762.56;;;16.86;100.00
13612;BME280;6877;51.436;6.774;2023-09-12T06:52:02;100773.34;;;16.81;100.00
13612;BME280;6877;51.436;6.774;2023-09-12T06:54:29;100765.41;;;16.81;100.00
13612;BME280;6877;51.436;6.774;2023-09-12T06:57:00;100755.59;;;16.83;100.00
13612;BME280;6877;51.436;6.774;2023-09-12T06:59:27;100778.28;;;16.89;100.00
13612;BME280;6877;51.436;6.774;2023-09-12T07:01:53;100792.28;;;16.91;100.00
13612;BME280;6877;51.436;6.774;2023-09-12T07:04:19;100799.25;;;16.94;100.00
13612;BME280;6877;51.436;6.774;2023-09-12T07:06:46;100801.03;;;16.93;100.00
13612;BME280;6877;51.436;6.774;2023-09-12T07:09:12;100787.72;;;16.95;100.00
13612;BME280;6877;51.436;6.774;2023-09-12T07:11:45;100800.69;;;17.01;100.00
13612;BME280;6877;51.436;6.774;2023-09-12T07:14:16;100805.88;;;17.02;100.00
13612;BME280;6877;51.436;6.774;2023-09-12T07:16:43;100801.34;;;17.06;100.00
13612;BME280;6877;51.436;6.774;2023-09-12T07:19:14;100790.00;;;17.02;100.00
13612;BME280;6877;51.436;6.774;2023-09-12T07:21:42;100804.88;;;17.05;100.00
13612;BME280;6877;51.436;6.774;2023-09-12T07:24:08;100782.56;;;17.12;100.00
13612;BME280;6877;51.436;6.774;2023-09-12T07:26:35;100779.63;;;17.18;100.00
13612;BME280;6877;51.436;6.774;2023-09-12T07:29:01;100783.06;;;17.20;100.00
13612;BME280;6877;51.436;6.774;2023-09-12T07:35:14;100768.59;;;17.27;100.00
13612;BME280;6877;51.436;6.774;2023-09-12T07:37:42;100756.97;;;17.31;100.00
13612;BME280;6877;51.436;6.774;2023-09-12T07:40:09;100749.91;;;17.32;100.00
13612;BME280;6877;51.436;6.774;2023-09-12T07:42:42;100753.63;;;17.28;100.00
13612;BME280;6877;51.436;6.774;2023-09-12T07:45:09;100744.31;;;17.38;100.00
13612;BME280;6877;51.436;6.774;2023-09-12T07:47:36;100740.81;;;17.56;100.00
13612;BME280;6877;51.436;6.774;2023-09-12T07:50:03;100739.72;;;17.79;100.00
13612;BME280;6877;51.436;6.774;2023-09-12T07:52:30;100744.88;;;17.82;100.00
13612;BME280;6877;51.436;6.774;2023-09-12T07:55:01;100748.66;;;17.77;100.00
13612;BME280;6877;51.436;6.774;2023-09-12T07:57:28;100750.88;;;17.86;100.00
13612;BME280;6877;51.436;6.774;2023-09-12T07:59:55;100753.13;;;18.13;100.00
13612;BME280;6877;51.436;6.774;2023-09-12T08:02:22;100762.38;;;18.21;100.00
13612;BME280;6877;51.436;6.774;2023-09-12T08:04:50;100768.44;;;18.23;100.00
13612;BME280;6877;51.436;6.774;2023-09-12T08:07:17;100765.50;;;18.29;100.00
13612;BME280;6877;51.436;6.774;2023-09-12T08:09:55;100762.69;;;18.67;100.00
13612;BME280;6877;51.436;6.774;2023-09-12T08:12:25;100769.78;;;19.17;100.00
13612;BME280;6877;51.436;6.774;2023-09-12T08:14:52;100764.84;;;19.43;100.00
13612;BME280;6877;51.436;6.774;2023-09-12T08:17:19;100764.75;;;19.44;100.00
13612;BME280;6877;51.436;6.774;2023-09-12T08:19:46;100761.84;;;19.49;100.00
13612;BME280;6877;51.436;6.774;2023-09-12T08:22:13;100759.34;;;20.09;100.00
13612;BME280;6877;51.436;6.774;2023-09-12T08:24:39;100768.66;;;21.48;100.00
13612;BME280;6877;51.436;6.774;2023-09-12T08:27:06;100782.75;;;22.97;100.00
13612;BME280;6877;51.436;6.774;2023-09-12T08:29:33;100783.94;;;23.68;100.00
13612;BME280;6877;51.436;6.774;2023-09-12T08:32:00;100781.25;;;25.88;100.00
13612;BME280;6877;51.436;6.774;2023-09-12T08:34:27;100786.91;;;27.72;100.00
13612;BME280;6877;51.436;6.774;2023-09-12T08:36:53;100781.03;;;28.36;100.00
13612;BME280;6877;51.436;6.774;2023-09-12T08:39:25;100797.69;;;30.70;100.00
13612;BME280;6877;51.436;6.774;2023-09-12T08:41:56;100810.03;;;31.51;100.00
13612;BME280;6877;51.436;6.774;2023-09-12T08:44:23;100812.09;;;32.98;100.00
13612;BME280;6877;51.436;6.774;2023-09-12T08:46:50;100826.66;;;33.05;98.12
13612;BME280;6877;51.436;6.774;2023-09-12T08:49:16;100842.84;;;33.77;89.13
13612;BME280;6877;51.436;6.774;2023-09-12T08:51:43;100838.19;;;32.42;98.20
13612;BME280;6877;51.436;6.774;2023-09-12T08:54:10;100844.16;;;31.44;100.00
13612;BME280;6877;51.436;6.774;2023-09-12T08:56:40;100852.38;;;29.55;93.30
13612;BME280;6877;51.436;6.774;2023-09-12T08:59:10;100851.19;;;28.45;100.00
13612;BME280;6877;51.436;6.774;2023-09-12T09:01:42;100848.44;;;28.83;100.00
13612;BME280;6877;51.436;6.774;2023-09-12T09:04:14;100854.53;;;30.79;90.13
13612;BME280;6877;51.436;6.774;2023-09-12T09:06:41;100861.97;;;32.05;93.58
13612;BME280;6877;51.436;6.774;2023-09-12T09:09:08;100863.16;;;33.89;93.58
13612;BME280;6877;51.436;6.774;2023-09-12T09:11:40;100871.22;;;34.52;71.44
13612;BME280;6877;51.436;6.774;2023-09-12T09:14:15;100877.09;;;35.54;79.97
13612;BME280;6877;51.436;6.774;2023-09-12T09:16:44;100883.81;;;36.24;71.18
13612;BME280;6877;51.436;6.774;2023-09-12T09:19:16;100880.91;;;35.74;68.21
13612;BME280;6877;51.436;6.774;2023-09-12T09:21:49;100883.38;;;35.25;61.60
13612;BME280;6877;51.436;6.774;2023-09-12T09:24:21;100881.22;;;35.35;54.90
13612;BME280;6877;51.436;6.774;2023-09-12T09:26:53;100889.66;;;35.85;57.65
13612;BME280;6877;51.436;6.774;2023-09-12T09:29:25;100899.63;;;36.72;59.09
13612;BME280;6877;51.436;6.774;2023-09-12T09:31:52;100888.72;;;36.50;57.35
13612;BME280;6877;51.436;6.774;2023-09-12T09:34:20;100889.72;;;37.48;58.02
13612;BME280;6877;51.436;6.774;2023-09-12T09:36:52;100895.34;;;38.43;56.18
13612;BME280;6877;51.436;6.774;2023-09-12T09:39:21;100886.81;;;37.56;52.60
13612;BME280;6877;51.436;6.774;2023-09-12T09:41:50;100870.91;;;34.93;57.93
13612;BME280;6877;51.436;6.774;2023-09-12T09:44:24;100865.28;;;32.58;57.42
13612;BME280;6877;51.436;6.774;2023-09-12T09:47:00;100862.31;;;30.64;65.05
13612;BME280;6877;51.436;6.774;2023-09-12T09:49:31;100858.94;;;28.86;64.83
13612;BME280;6877;51.436;6.774;2023-09-12T09:51:57;100856.91;;;27.61;72.56
13612;BME280;6877;51.436;6.774;2023-09-12T09:54:30;100858.38;;;26.92;75.80
13612;BME280;6877;51.436;6.774;2023-09-12T09:56:57;100857.38;;;26.40;77.64
13612;BME280;6877;51.436;6.774;2023-09-12T09:59:25;100851.53;;;26.35;83.15
13612;BME280;6877;51.436;6.774;2023-09-12T10:01:58;100854.59;;;27.16;79.09
13612;BME280;6877;51.436;6.774;2023-09-12T10:04:28;100852.34;;;29.18;76.02
13612;BME280;6877;51.436;6.774;2023-09-12T10:06:58;100865.63;;;31.20;60.98
13612;BME280;6877;51.436;6.774;2023-09-12T10:09:28;100871.47;;;32.10;56.18
13612;BME280;6877;51.436;6.774;2023-09-12T10:11:57;100863.09;;;32.86;61.20
13612;BME280;6877;51.436;6.774;2023-09-12T10:14:29;100872.00;;;32.29;59.88
13612;BME280;6877;51.436;6.774;2023-09-12T10:17:02;100863.66;;;31.56;56.07
13612;BME280;6877;51.436;6.774;2023-09-12T10:19:45;100861.28;;;31.01;66.92
13612;BME280;6877;51.436;6.774;2023-09-12T10:22:24;100865.47;;;31.47;63.65
13612;BME280;6877;51.436;6.774;2023-09-12T10:24:57;100853.97;;;30.75;60.80
13612;BME280;6877;51.436;6.774;2023-09-12T10:27:25;100856.59;;;29.68;64.34
13612;BME280;6877;51.436;6.774;2023-09-12T10:29:52;100852.59;;;30.89;68.25
13612;BME280;6877;51.436;6.774;2023-09-12T10:32:21;100855.25;;;32.91;65.05
13612;BME280;6877;51.436;6.774;2023-09-12T10:34:48;100860.25;;;33.43;62.56
13612;BME280;6877;51.436;6.774;2023-09-12T10:37:16;100859.66;;;34.12;62.51
13612;BME280;6877;51.436;6.774;2023-09-12T10:39:45;100861.78;;;35.68;55.84
13612;BME280;6877;51.436;6.774;2023-09-12T10:42:12;100868.50;;;35.72;45.80
13612;BME280;6877;51.436;6.774;2023-09-12T10:44:39;100867.44;;;34.99;50.47
13612;BME280;6877;51.436;6.774;2023-09-12T10:47:06;100867.50;;;33.67;55.73
13612;BME280;6877;51.436;6.774;2023-09-12T10:49:33;100855.22;;;33.80;58.83
13612;BME280;6877;51.436;6.774;2023-09-12T10:51:59;100868.53;;;34.75;50.84
13612;BME280;6877;51.436;6.774;2023-09-12T10:54:36;100854.84;;;35.06;48.95
13612;BME280;6877;51.436;6.774;2023-09-12T10:57:10;100859.38;;;35.94;51.10
13612;BME280;6877;51.436;6.774;2023-09-12T11:02:36;100856.66;;;37.02;50.36
13612;BME280;6877;51.436;6.774;2023-09-12T11:05:05;100859.09;;;36.69;45.74
13612;BME280;6877;51.436;6.774;2023-09-12T11:11:25;100856.59;;;35.88;48.03
13612;BME280;6877;51.436;6.774;2023-09-12T11:18:05;100847.75;;;36.22;48.24
13612;BME280;6877;51.436;6.774;2023-09-12T11:21:00;100843.75;;;35.67;47.42
13612;BME280;6877;51.436;6.774;2023-09-12T11:23:53;100839.31;;;34.00;45.04
13612;BME280;6877;51.436;6.774;2023-09-12T11:27:00;100830.88;;;32.34;49.26
13612;BME280;6877;51.436;6.774;2023-09-12T11:29:47;100833.03;;;31.47;51.27
13612;BME280;6877;51.436;6.774;2023-09-12T11:33:04;100827.16;;;29.74;52.56
13612;BME280;6877;51.436;6.774;2023-09-12T11:35:55;100817.66;;;29.43;58.11
13612;BME280;6877;51.436;6.774;2023-09-12T11:42:30;100822.44;;;29.49;58.70
13612;BME280;6877;51.436;6.774;2023-09-12T11:45:29;100822.13;;;29.24;56.53
13612;BME280;6877;51.436;6.774;2023-09-12T11:48:13;100822.22;;;28.27;59.87
13612;BME280;6877;51.436;6.774;2023-09-12T11:51:10;100819.38;;;27.40;64.41
13612;BME280;6877;51.436;6.774;2023-09-12T11:53:57;100814.88;;;26.98;65.19
13612;BME280;6877;51.436;6.774;2023-09-12T11:56:55;100813.31;;;26.75;67.24
13612;BME280;6877;51.436;6.774;2023-09-12T11:59:58;100820.13;;;27.21;66.06
13612;BME280;6877;51.436;6.774;2023-09-12T12:03:02;100826.19;;;27.54;63.27
13612;BME280;6877;51.436;6.774;2023-09-12T12:05:58;100824.50;;;27.53;64.39
13612;BME280;6877;51.436;6.774;2023-09-12T12:09:06;100819.13;;;27.53;64.86
13612;BME280;6877;51.436;6.774;2023-09-12T12:15:53;100810.09;;;27.02;65.68
13612;BME280;6877;51.436;6.774;2023-09-12T12:19:08;100808.06;;;26.94;63.45
13612;BME280;6877;51.436;6.774;2023-09-12T12:22:26;100819.72;;;27.04;63.42
13612;BME280;6877;51.436;6.774;2023-09-12T12:25:11;100815.69;;;27.41;64.64
13612;BME280;6877;51.436;6.774;2023-09-12T12:27:51;100820.22;;;27.40;60.73
13612;BME280;6877;51.436;6.774;2023-09-12T12:30:38;100828.69;;;27.45;62.39
13612;BME280;6877;51.436;6.774;2023-09-12T12:34:03;100818.44;;;27.70;62.24
13612;BME280;6877;51.436;6.774;2023-09-12T12:37:06;100800.69;;;27.98;60.10
13612;BME280;6877;51.436;6.774;2023-09-12T12:40:36;100803.66;;;27.85;60.88
13612;BME280;6877;51.436;6.774;2023-09-12T12:43:50;100803.09;;;27.82;62.98
13612;BME280;6877;51.436;6.774;2023-09-12T12:46:57;100791.63;;;28.09;60.11
13612;BME280;6877;51.436;6.774;2023-09-12T12:49:44;100794.03;;;28.12;58.47
13612;BME280;6877;51.436;6.774;2023-09-12T12:52:51;100796.03;;;28.10;58.02
13612;BME280;6877;51.436;6.774;2023-09-12T12:55:28;100778.91;;;28.11;59.97
13612;BME280;6877;51.436;6.774;2023-09-12T12:58:18;100780.75;;;28.01;59.66
13612;BME280;6877;51.436;6.774;2023-09-12T13:01:29;100779.91;;;27.90;58.14
13612;BME280;6877;51.436;6.774;2023-09-12T13:07:20;100760.47;;;27.77;58.96
13612;BME280;6877;51.436;6.774;2023-09-12T13:10:12;100755.22;;;27.76;58.30
13612;BME280;6877;51.436;6.774;2023-09-12T13:13:07;100752.84;;;27.82;60.85
13612;BME280;6877;51.436;6.774;2023-09-12T13:15:56;100750.16;;;27.82;59.76
13612;BME280;6877;51.436;6.774;2023-09-12T13:18:40;100749.59;;;27.88;60.98
13612;BME280;6877;51.436;6.774;2023-09-12T13:21:29;100734.31;;;27.89;61.00
13612;BME280;6877;51.436;6.774;2023-09-12T13:24:15;100743.44;;;27.67;60.16
13612;BME280;6877;51.436;6.774;2023-09-12T13:30:10;100728.31;;;27.66;60.91
13612;BME280;6877;51.436;6.774;2023-09-12T13:33:27;100726.97;;;27.31;60.87
13612;BME280;6877;51.436;6.774;2023-09-12T13:36:34;100727.16;;;26.78;63.10
13612;BME280;6877;51.436;6.774;2023-09-12T13:46:25;100724.59;;;27.07;62.93
13612;BME280;6877;51.436;6.774;2023-09-12T13:49:21;100731.13;;;27.14;61.10
13612;BME280;6877;51.436;6.774;2023-09-12T13:52:15;100729.66;;;27.31;61.82
13612;BME280;6877;51.436;6.774;2023-09-12T13:55:22;100726.84;;;27.42;62.34
13612;BME280;6877;51.436;6.774;2023-09-12T13:58:34;100729.56;;;27.12;61.54
13612;BME280;6877;51.436;6.774;2023-09-12T14:01:21;100719.16;;;26.67;63.70